De Graff, Ohio
Current Conditions -  °F | °C
As of 10:30 AM on Saturday 22 Nov 2014 (Local Time) from KEDJ Reporting Station
Broken Clouds Broken Clouds  
Wind Chill: 29°   Ceiling: 4900
Heat Index: 37°   Visibility: 10mi
Dew Point: 36°   Wind: 13mph
Humidity: 93%   Direction: 180°S
Pressure: 30.2"   Gusts: NA
Location:  40.31°N, 83.92°W
Report Text: KEDJ 221530Z AUTO 18011KT 10SM BKN049 BKN060 03/02 A3020 RMK AO1
Loading
Personal Weather Stations






























Interactive Weather Map New forecast layout! Learn more

10-Day Weather Forecast

Advertisements
Track Severe Weather on mobile